sensor_id;sensor_type;location;lat;lon;timestamp;P1;durP1;ratioP1;P2;durP2;ratioP2
28174;SDS011;59417;44.788;10.334;2023-04-25T00:00:20;1.90;;;1.38;;
28174;SDS011;59417;44.788;10.334;2023-04-25T00:02:45;3.05;;;1.40;;
28174;SDS011;59417;44.788;10.334;2023-04-25T00:05:11;1.63;;;1.40;;
28174;SDS011;59417;44.788;10.334;2023-04-25T00:07:37;3.05;;;1.50;;
28174;SDS011;59417;44.788;10.334;2023-04-25T00:10:03;3.40;;;1.30;;
28174;SDS011;59417;44.788;10.334;2023-04-25T00:12:30;2.60;;;1.05;;
28174;SDS011;59417;44.788;10.334;2023-04-25T00:14:55;2.55;;;1.50;;
28174;SDS011;59417;44.788;10.334;2023-04-25T00:17:25;1.60;;;1.23;;
28174;SDS011;59417;44.788;10.334;2023-04-25T00:19:51;3.20;;;1.20;;
28174;SDS011;59417;44.788;10.334;2023-04-25T00:22:17;1.65;;;1.25;;
28174;SDS011;59417;44.788;10.334;2023-04-25T00:24:43;2.33;;;1.45;;
28174;SDS011;59417;44.788;10.334;2023-04-25T00:27:09;2.25;;;1.30;;
28174;SDS011;59417;44.788;10.334;2023-04-25T00:29:34;2.65;;;1.45;;
28174;SDS011;59417;44.788;10.334;2023-04-25T00:32:00;3.50;;;1.58;;
28174;SDS011;59417;44.788;10.334;2023-04-25T00:34:26;8.77;;;1.60;;
28174;SDS011;59417;44.788;10.334;2023-04-25T00:36:52;2.58;;;1.00;;
28174;SDS011;59417;44.788;10.334;2023-04-25T00:39:18;1.58;;;1.33;;
28174;SDS011;59417;44.788;10.334;2023-04-25T00:41:43;2.55;;;1.42;;
28174;SDS011;59417;44.788;10.334;2023-04-25T00:44:10;1.73;;;1.42;;
28174;SDS011;59417;44.788;10.334;2023-04-25T00:46:37;1.65;;;1.50;;
28174;SDS011;59417;44.788;10.334;2023-04-25T00:49:03;2.58;;;1.27;;
28174;SDS011;59417;44.788;10.334;2023-04-25T00:51:30;3.63;;;1.40;;
28174;SDS011;59417;44.788;10.334;2023-04-25T00:53:57;3.10;;;1.50;;
28174;SDS011;59417;44.788;10.334;2023-04-25T00:56:23;1.75;;;1.40;;
28174;SDS011;59417;44.788;10.334;2023-04-25T00:58:50;3.38;;;1.40;;
28174;SDS011;59417;44.788;10.334;2023-04-25T01:01:20;2.50;;;1.50;;
28174;SDS011;59417;44.788;10.334;2023-04-25T01:03:46;2.15;;;1.52;;
28174;SDS011;59417;44.788;10.334;2023-04-25T03:36:39;4.10;;;3.13;;
28174;SDS011;59417;44.788;10.334;2023-04-25T03:41:36;4.05;;;3.10;;
28174;SDS011;59417;44.788;10.334;2023-04-25T03:44:08;4.10;;;2.92;;
28174;SDS011;59417;44.788;10.334;2023-04-25T03:46:34;5.28;;;3.42;;
28174;SDS011;59417;44.788;10.334;2023-04-25T03:49:00;6.28;;;3.20;;
28174;SDS011;59417;44.788;10.334;2023-04-25T03:51:39;3.50;;;3.20;;
28174;SDS011;59417;44.788;10.334;2023-04-25T03:54:07;3.63;;;2.80;;
28174;SDS011;59417;44.788;10.334;2023-04-25T03:56:39;4.43;;;2.92;;
28174;SDS011;59417;44.788;10.334;2023-04-25T03:59:16;3.65;;;3.35;;
28174;SDS011;59417;44.788;10.334;2023-04-25T04:01:44;7.78;;;3.35;;
28174;SDS011;59417;44.788;10.334;2023-04-25T04:04:10;6.55;;;3.40;;
28174;SDS011;59417;44.788;10.334;2023-04-25T04:06:38;4.28;;;2.97;;
28174;SDS011;59417;44.788;10.334;2023-04-25T04:09:13;8.80;;;4.15;;
28174;SDS011;59417;44.788;10.334;2023-04-25T04:11:41;10.63;;;6.30;;
28174;SDS011;59417;44.788;10.334;2023-04-25T04:14:07;6.30;;;4.18;;
28174;SDS011;59417;44.788;10.334;2023-04-25T04:16:40;7.03;;;5.22;;
28174;SDS011;59417;44.788;10.334;2023-04-25T04:19:07;9.25;;;4.63;;
28174;SDS011;59417;44.788;10.334;2023-04-25T04:21:34;4.95;;;3.60;;
28174;SDS011;59417;44.788;10.334;2023-04-25T04:24:02;3.85;;;3.42;;
28174;SDS011;59417;44.788;10.334;2023-04-25T04:26:36;5.40;;;3.70;;
28174;SDS011;59417;44.788;10.334;2023-04-25T04:29:27;9.55;;;3.88;;
28174;SDS011;59417;44.788;10.334;2023-04-25T04:32:14;4.07;;;3.60;;
28174;SDS011;59417;44.788;10.334;2023-04-25T04:34:41;6.65;;;3.80;;
28174;SDS011;59417;44.788;10.334;2023-04-25T04:37:14;4.60;;;3.42;;
28174;SDS011;59417;44.788;10.334;2023-04-25T04:39:41;5.25;;;4.38;;
28174;SDS011;59417;44.788;10.334;2023-04-25T04:42:22;5.43;;;3.60;;
28174;SDS011;59417;44.788;10.334;2023-04-25T04:44:54;4.80;;;3.78;;
28174;SDS011;59417;44.788;10.334;2023-04-25T04:47:40;4.82;;;3.97;;
28174;SDS011;59417;44.788;10.334;2023-04-25T04:50:32;6.97;;;4.13;;
28174;SDS011;59417;44.788;10.334;2023-04-25T04:53:18;6.03;;;3.50;;
28174;SDS011;59417;44.788;10.334;2023-04-25T04:55:56;6.43;;;4.50;;
28174;SDS011;59417;44.788;10.334;2023-04-25T04:58:40;6.15;;;4.03;;
28174;SDS011;59417;44.788;10.334;2023-04-25T05:01:31;5.80;;;3.88;;
28174;SDS011;59417;44.788;10.334;2023-04-25T05:04:15;5.63;;;3.88;;
28174;SDS011;59417;44.788;10.334;2023-04-25T05:07:02;5.03;;;4.18;;
28174;SDS011;59417;44.788;10.334;2023-04-25T05:09:41;4.97;;;3.70;;
28174;SDS011;59417;44.788;10.334;2023-04-25T05:12:39;5.72;;;4.35;;
28174;SDS011;59417;44.788;10.334;2023-04-25T05:15:14;6.95;;;4.47;;
28174;SDS011;59417;44.788;10.334;2023-04-25T05:18:00;5.72;;;4.00;;
28174;SDS011;59417;44.788;10.334;2023-04-25T05:20:38;6.88;;;4.30;;
28174;SDS011;59417;44.788;10.334;2023-04-25T05:23:22;9.55;;;4.82;;
28174;SDS011;59417;44.788;10.334;2023-04-25T05:26:01;7.40;;;4.10;;
28174;SDS011;59417;44.788;10.334;2023-04-25T05:28:44;6.97;;;4.55;;
28174;SDS011;59417;44.788;10.334;2023-04-25T05:31:38;4.82;;;4.32;;
28174;SDS011;59417;44.788;10.334;2023-04-25T05:34:09;8.25;;;3.97;;
28174;SDS011;59417;44.788;10.334;2023-04-25T05:36:43;7.60;;;4.32;;
28174;SDS011;59417;44.788;10.334;2023-04-25T05:39:09;4.88;;;4.22;;
28174;SDS011;59417;44.788;10.334;2023-04-25T05:41:53;6.03;;;4.70;;
28174;SDS011;59417;44.788;10.334;2023-04-25T05:44:42;5.43;;;4.80;;
28174;SDS011;59417;44.788;10.334;2023-04-25T05:47:29;9.38;;;5.18;;
28174;SDS011;59417;44.788;10.334;2023-04-25T05:50:02;11.38;;;4.82;;
28174;SDS011;59417;44.788;10.334;2023-04-25T05:52:47;7.10;;;4.95;;
28174;SDS011;59417;44.788;10.334;2023-04-25T05:55:37;4.78;;;4.10;;
28174;SDS011;59417;44.788;10.334;2023-04-25T05:58:17;9.73;;;4.70;;
28174;SDS011;59417;44.788;10.334;2023-04-25T06:00:43;11.20;;;4.70;;
28174;SDS011;59417;44.788;10.334;2023-04-25T06:03:09;6.95;;;4.55;;
28174;SDS011;59417;44.788;10.334;2023-04-25T06:05:38;9.15;;;5.18;;
28174;SDS011;59417;44.788;10.334;2023-04-25T06:08:04;6.70;;;4.40;;
28174;SDS011;59417;44.788;10.334;2023-04-25T06:10:30;5.55;;;4.53;;
28174;SDS011;59417;44.788;10.334;2023-04-25T06:12:59;5.10;;;4.18;;
28174;SDS011;59417;44.788;10.334;2023-04-25T06:15:25;9.35;;;5.07;;
28174;SDS011;59417;44.788;10.334;2023-04-25T06:17:51;7.53;;;4.55;;
28174;SDS011;59417;44.788;10.334;2023-04-25T06:20:16;7.68;;;4.80;;
28174;SDS011;59417;44.788;10.334;2023-04-25T06:22:42;7.55;;;4.75;;
28174;SDS011;59417;44.788;10.334;2023-04-25T06:25:09;5.18;;;4.50;;
28174;SDS011;59417;44.788;10.334;2023-04-25T06:27:38;5.50;;;4.68;;
28174;SDS011;59417;44.788;10.334;2023-04-25T06:30:04;5.90;;;4.72;;
28174;SDS011;59417;44.788;10.334;2023-04-25T06:35:00;8.85;;;4.95;;
28174;SDS011;59417;44.788;10.334;2023-04-25T06:37:26;6.88;;;5.50;;
28174;SDS011;59417;44.788;10.334;2023-04-25T06:40:01;7.63;;;5.28;;
28174;SDS011;59417;44.788;10.334;2023-04-25T06:42:28;11.07;;;4.93;;
28174;SDS011;59417;44.788;10.334;2023-04-25T06:44:58;6.55;;;4.57;;
28174;SDS011;59417;44.788;10.334;2023-04-25T06:47:28;7.22;;;4.47;;
28174;SDS011;59417;44.788;10.334;2023-04-25T06:49:55;7.07;;;4.75;;
28174;SDS011;59417;44.788;10.334;2023-04-25T06:52:21;8.02;;;4.80;;
28174;SDS011;59417;44.788;10.334;2023-04-25T06:54:48;11.30;;;5.00;;
28174;SDS011;59417;44.788;10.334;2023-04-25T06:59:58;6.18;;;4.38;;
28174;SDS011;59417;44.788;10.334;2023-04-25T07:02:23;6.32;;;4.22;;
28174;SDS011;59417;44.788;10.334;2023-04-25T07:04:51;6.53;;;4.53;;
28174;SDS011;59417;44.788;10.334;2023-04-25T07:07:22;10.43;;;4.77;;
28174;SDS011;59417;44.788;10.334;2023-04-25T07:09:54;8.07;;;4.63;;
28174;SDS011;59417;44.788;10.334;2023-04-25T07:12:20;5.97;;;4.70;;
28174;SDS011;59417;44.788;10.334;2023-04-25T07:14:47;6.72;;;4.63;;
28174;SDS011;59417;44.788;10.334;2023-04-25T07:17:13;7.20;;;4.30;;
28174;SDS011;59417;44.788;10.334;2023-04-25T07:19:39;4.82;;;4.32;;
28174;SDS011;59417;44.788;10.334;2023-04-25T07:22:08;7.43;;;4.78;;
28174;SDS011;59417;44.788;10.334;2023-04-25T07:24:38;5.75;;;4.60;;
28174;SDS011;59417;44.788;10.334;2023-04-25T07:27:09;8.30;;;4.65;;
28174;SDS011;59417;44.788;10.334;2023-04-25T07:29:48;6.90;;;5.10;;
28174;SDS011;59417;44.788;10.334;2023-04-25T07:32:15;8.77;;;5.22;;
28174;SDS011;59417;44.788;10.334;2023-04-25T07:34:42;8.00;;;4.80;;
28174;SDS011;59417;44.788;10.334;2023-04-25T07:37:07;9.35;;;5.00;;
28174;SDS011;59417;44.788;10.334;2023-04-25T07:39:43;7.43;;;5.40;;
28174;SDS011;59417;44.788;10.334;2023-04-25T07:42:09;5.82;;;5.20;;
28174;SDS011;59417;44.788;10.334;2023-04-25T07:44:47;7.28;;;5.30;;
28174;SDS011;59417;44.788;10.334;2023-04-25T07:47:14;5.53;;;4.90;;
28174;SDS011;59417;44.788;10.334;2023-04-25T07:49:43;8.85;;;4.88;;
28174;SDS011;59417;44.788;10.334;2023-04-25T07:52:09;7.82;;;4.63;;
28174;SDS011;59417;44.788;10.334;2023-04-25T07:54:39;7.38;;;4.95;;
28174;SDS011;59417;44.788;10.334;2023-04-25T07:57:15;5.28;;;4.45;;
28174;SDS011;59417;44.788;10.334;2023-04-25T07:59:43;5.80;;;4.47;;
28174;SDS011;59417;44.788;10.334;2023-04-25T08:02:09;4.25;;;3.55;;
28174;SDS011;59417;44.788;10.334;2023-04-25T08:04:35;5.38;;;3.83;;
28174;SDS011;59417;44.788;10.334;2023-04-25T08:07:03;5.03;;;3.35;;
28174;SDS011;59417;44.788;10.334;2023-04-25T08:09:35;3.50;;;2.40;;
28174;SDS011;59417;44.788;10.334;2023-04-25T08:12:05;3.78;;;2.10;;
28174;SDS011;59417;44.788;10.334;2023-04-25T08:14:32;1.23;;;1.13;;
28174;SDS011;59417;44.788;10.334;2023-04-25T08:19:30;0.98;;;0.88;;
28174;SDS011;59417;44.788;10.334;2023-04-25T08:21:56;1.05;;;0.73;;
28174;SDS011;59417;44.788;10.334;2023-04-25T08:24:29;2.00;;;0.88;;
28174;SDS011;59417;44.788;10.334;2023-04-25T08:26:54;3.05;;;0.80;;
28174;SDS011;59417;44.788;10.334;2023-04-25T08:29:22;0.80;;;0.80;;
28174;SDS011;59417;44.788;10.334;2023-04-25T08:31:50;1.40;;;0.80;;
28174;SDS011;59417;44.788;10.334;2023-04-25T08:34:17;1.70;;;0.85;;
28174;SDS011;59417;44.788;10.334;2023-04-25T08:36:46;1.73;;;0.82;;
28174;SDS011;59417;44.788;10.334;2023-04-25T08:39:41;0.70;;;0.70;;
28174;SDS011;59417;44.788;10.334;2023-04-25T08:42:22;2.08;;;0.90;;
28174;SDS011;59417;44.788;10.334;2023-04-25T08:44:53;0.90;;;0.70;;
28174;SDS011;59417;44.788;10.334;2023-04-25T08:47:23;3.40;;;0.60;;
28174;SDS011;59417;44.788;10.334;2023-04-25T08:49:56;1.42;;;0.88;;
28174;SDS011;59417;44.788;10.334;2023-04-25T08:52:27;1.02;;;0.90;;
28174;SDS011;59417;44.788;10.334;2023-04-25T08:54:56;0.90;;;0.90;;
28174;SDS011;59417;44.788;10.334;2023-04-25T08:57:23;0.68;;;0.68;;
28174;SDS011;59417;44.788;10.334;2023-04-25T08:59:57;1.80;;;0.68;;
28174;SDS011;59417;44.788;10.334;2023-04-25T09:02:35;1.30;;;0.60;;
28174;SDS011;59417;44.788;10.334;2023-04-25T09:05:02;2.90;;;0.82;;
28174;SDS011;59417;44.788;10.334;2023-04-25T09:07:30;0.98;;;0.80;;
28174;SDS011;59417;44.788;10.334;2023-04-25T09:09:56;0.93;;;0.80;;
28174;SDS011;59417;44.788;10.334;2023-04-25T09:12:22;0.65;;;0.60;;
28174;SDS011;59417;44.788;10.334;2023-04-25T09:15:05;0.60;;;0.60;;
28174;SDS011;59417;44.788;10.334;2023-04-25T09:17:58;1.95;;;0.73;;
28174;SDS011;59417;44.788;10.334;2023-04-25T09:20:30;0.90;;;0.77;;
28174;SDS011;59417;44.788;10.334;2023-04-25T09:23:03;0.50;;;0.50;;
28174;SDS011;59417;44.788;10.334;2023-04-25T09:25:36;1.40;;;0.80;;
28174;SDS011;59417;44.788;10.334;2023-04-25T09:28:23;3.22;;;1.30;;
28174;SDS011;59417;44.788;10.334;2023-04-25T09:30:56;0.98;;;0.85;;
28174;SDS011;59417;44.788;10.334;2023-04-25T09:33:32;0.63;;;0.60;;
28174;SDS011;59417;44.788;10.334;2023-04-25T09:38:42;1.08;;;0.80;;
28174;SDS011;59417;44.788;10.334;2023-04-25T09:41:23;0.70;;;0.63;;
28174;SDS011;59417;44.788;10.334;2023-04-25T09:43:57;2.88;;;0.70;;
28174;SDS011;59417;44.788;10.334;2023-04-25T09:46:32;2.55;;;0.52;;
28174;SDS011;59417;44.788;10.334;2023-04-25T09:49:06;0.57;;;0.50;;
28174;SDS011;59417;44.788;10.334;2023-04-25T09:51:47;1.80;;;0.70;;
28174;SDS011;59417;44.788;10.334;2023-04-25T09:54:20;3.85;;;0.70;;
28174;SDS011;59417;44.788;10.334;2023-04-25T09:56:56;0.98;;;0.52;;
28174;SDS011;59417;44.788;10.334;2023-04-25T09:59:36;2.95;;;0.68;;
28174;SDS011;59417;44.788;10.334;2023-04-25T10:02:06;0.50;;;0.50;;
28174;SDS011;59417;44.788;10.334;2023-04-25T10:04:37;1.88;;;0.82;;
28174;SDS011;59417;44.788;10.334;2023-04-25T10:07:29;0.90;;;0.77;;
28174;SDS011;59417;44.788;10.334;2023-04-25T10:10:03;3.85;;;0.80;;
28174;SDS011;59417;44.788;10.334;2023-04-25T10:12:32;2.55;;;0.90;;
28174;SDS011;59417;44.788;10.334;2023-04-25T10:15:02;3.58;;;1.00;;
28174;SDS011;59417;44.788;10.334;2023-04-25T10:17:28;1.50;;;1.00;;
28174;SDS011;59417;44.788;10.334;2023-04-25T10:19:56;1.77;;;0.93;;
28174;SDS011;59417;44.788;10.334;2023-04-25T10:22:29;1.35;;;1.00;;
28174;SDS011;59417;44.788;10.334;2023-04-25T10:24:59;1.25;;;0.88;;
28174;SDS011;59417;44.788;10.334;2023-04-25T10:31:24;1.05;;;0.95;;
28174;SDS011;59417;44.788;10.334;2023-04-25T10:41:58;2.30;;;1.25;;
28174;SDS011;59417;44.788;10.334;2023-04-25T11:21:26;3.05;;;2.17;;
28174;SDS011;59417;44.788;10.334;2023-04-25T11:28:55;2.38;;;1.77;;
28174;SDS011;59417;44.788;10.334;2023-04-25T11:36:25;4.00;;;2.17;;
28174;SDS011;59417;44.788;10.334;2023-04-25T11:52:41;2.72;;;2.35;;
28174;SDS011;59417;44.788;10.334;2023-04-25T12:08:19;3.63;;;2.15;;
28174;SDS011;59417;44.788;10.334;2023-04-25T12:11:54;2.42;;;1.73;;
28174;SDS011;59417;44.788;10.334;2023-04-25T12:14:29;1.95;;;1.63;;
28174;SDS011;59417;44.788;10.334;2023-04-25T12:17:11;4.35;;;1.83;;
28174;SDS011;59417;44.788;10.334;2023-04-25T12:23:56;3.58;;;1.40;;
28174;SDS011;59417;44.788;10.334;2023-04-25T12:29:23;4.65;;;1.75;;
28174;SDS011;59417;44.788;10.334;2023-04-25T12:31:50;3.13;;;1.88;;
28174;SDS011;59417;44.788;10.334;2023-04-25T12:34:20;1.80;;;1.70;;
28174;SDS011;59417;44.788;10.334;2023-04-25T12:36:49;2.83;;;1.58;;
28174;SDS011;59417;44.788;10.334;2023-04-25T12:39:17;4.43;;;1.58;;
28174;SDS011;59417;44.788;10.334;2023-04-25T12:41:47;2.50;;;1.70;;
28174;SDS011;59417;44.788;10.334;2023-04-25T12:44:14;4.70;;;1.52;;
28174;SDS011;59417;44.788;10.334;2023-04-25T12:46:40;4.53;;;1.77;;
28174;SDS011;59417;44.788;10.334;2023-04-25T12:49:07;3.85;;;2.08;;
28174;SDS011;59417;44.788;10.334;2023-04-25T12:51:37;3.55;;;2.05;;
28174;SDS011;59417;44.788;10.334;2023-04-25T12:54:04;2.05;;;1.80;;
28174;SDS011;59417;44.788;10.334;2023-04-25T12:56:32;1.88;;;1.65;;
28174;SDS011;59417;44.788;10.334;2023-04-25T12:58:59;2.67;;;1.92;;
28174;SDS011;59417;44.788;10.334;2023-04-25T13:01:49;4.70;;;1.90;;
28174;SDS011;59417;44.788;10.334;2023-04-25T13:04:18;4.80;;;2.05;;
28174;SDS011;59417;44.788;10.334;2023-04-25T13:06:46;4.22;;;2.00;;
28174;SDS011;59417;44.788;10.334;2023-04-25T13:09:12;6.63;;;1.92;;
28174;SDS011;59417;44.788;10.334;2023-04-25T13:11:40;2.70;;;1.88;;
28174;SDS011;59417;44.788;10.334;2023-04-25T13:14:06;3.40;;;2.00;;
28174;SDS011;59417;44.788;10.334;2023-04-25T13:16:32;2.97;;;1.42;;
28174;SDS011;59417;44.788;10.334;2023-04-25T13:18:58;5.78;;;1.80;;
28174;SDS011;59417;44.788;10.334;2023-04-25T13:21:25;2.20;;;1.52;;
28174;SDS011;59417;44.788;10.334;2023-04-25T13:23:52;4.55;;;1.63;;
28174;SDS011;59417;44.788;10.334;2023-04-25T13:26:24;4.60;;;1.90;;
28174;SDS011;59417;44.788;10.334;2023-04-25T13:32:23;2.38;;;1.58;;
28174;SDS011;59417;44.788;10.334;2023-04-25T13:35:30;3.75;;;1.88;;
28174;SDS011;59417;44.788;10.334;2023-04-25T13:38:17;2.47;;;1.58;;
28174;SDS011;59417;44.788;10.334;2023-04-25T13:59:44;3.15;;;1.77;;
28174;SDS011;59417;44.788;10.334;2023-04-25T14:52:30;3.45;;;1.58;;
28174;SDS011;59417;44.788;10.334;2023-04-25T15:03:34;3.00;;;1.50;;
28174;SDS011;59417;44.788;10.334;2023-04-25T15:22:15;3.05;;;1.70;;
28174;SDS011;59417;44.788;10.334;2023-04-25T15:25:43;4.45;;;1.50;;
28174;SDS011;59417;44.788;10.334;2023-04-25T15:28:40;1.58;;;1.20;;
28174;SDS011;59417;44.788;10.334;2023-04-25T15:32:18;3.03;;;1.33;;
28174;SDS011;59417;44.788;10.334;2023-04-25T15:35:36;2.00;;;1.80;;
28174;SDS011;59417;44.788;10.334;2023-04-25T15:38:54;5.40;;;1.67;;
28174;SDS011;59417;44.788;10.334;2023-04-25T15:50:21;4.28;;;0.70;;
28174;SDS011;59417;44.788;10.334;2023-04-25T15:53:23;1.45;;;0.75;;
28174;SDS011;59417;44.788;10.334;2023-04-25T15:57:13;3.13;;;1.13;;
28174;SDS011;59417;44.788;10.334;2023-04-25T16:00:33;1.60;;;0.98;;
28174;SDS011;59417;44.788;10.334;2023-04-25T16:03:02;7.95;;;1.20;;
28174;SDS011;59417;44.788;10.334;2023-04-25T16:05:30;1.98;;;1.02;;
28174;SDS011;59417;44.788;10.334;2023-04-25T16:08:01;2.63;;;0.95;;
28174;SDS011;59417;44.788;10.334;2023-04-25T16:10:28;5.80;;;1.25;;
28174;SDS011;59417;44.788;10.334;2023-04-25T16:12:54;2.95;;;0.98;;
28174;SDS011;59417;44.788;10.334;2023-04-25T16:15:20;2.38;;;0.93;;
28174;SDS011;59417;44.788;10.334;2023-04-25T16:17:48;1.13;;;0.82;;
28174;SDS011;59417;44.788;10.334;2023-04-25T16:20:14;5.97;;;1.45;;
28174;SDS011;59417;44.788;10.334;2023-04-25T16:22:41;1.45;;;1.00;;
28174;SDS011;59417;44.788;10.334;2023-04-25T16:25:12;3.30;;;1.10;;
28174;SDS011;59417;44.788;10.334;2023-04-25T16:27:38;3.05;;;0.95;;
28174;SDS011;59417;44.788;10.334;2023-04-25T16:30:08;2.13;;;1.20;;
28174;SDS011;59417;44.788;10.334;2023-04-25T16:32:35;2.53;;;1.02;;
28174;SDS011;59417;44.788;10.334;2023-04-25T16:35:02;1.55;;;1.10;;
28174;SDS011;59417;44.788;10.334;2023-04-25T16:37:28;1.20;;;0.80;;
28174;SDS011;59417;44.788;10.334;2023-04-25T16:39:54;3.17;;;0.85;;
28174;SDS011;59417;44.788;10.334;2023-04-25T16:42:22;1.45;;;0.82;;
28174;SDS011;59417;44.788;10.334;2023-04-25T16:44:48;2.67;;;1.02;;
28174;SDS011;59417;44.788;10.334;2023-04-25T16:47:13;2.47;;;0.93;;
28174;SDS011;59417;44.788;10.334;2023-04-25T16:49:40;4.25;;;1.17;;
28174;SDS011;59417;44.788;10.334;2023-04-25T16:52:06;2.65;;;0.90;;
28174;SDS011;59417;44.788;10.334;2023-04-25T16:54:32;1.75;;;0.82;;
28174;SDS011;59417;44.788;10.334;2023-04-25T16:57:19;3.75;;;1.13;;
28174;SDS011;59417;44.788;10.334;2023-04-25T17:00:23;4.47;;;0.88;;
28174;SDS011;59417;44.788;10.334;2023-04-25T17:02:49;1.70;;;1.00;;
28174;SDS011;59417;44.788;10.334;2023-04-25T17:05:18;2.90;;;0.95;;
28174;SDS011;59417;44.788;10.334;2023-04-25T17:07:44;2.55;;;1.33;;
28174;SDS011;59417;44.788;10.334;2023-04-25T17:10:10;1.27;;;1.00;;
28174;SDS011;59417;44.788;10.334;2023-04-25T17:16:11;4.10;;;1.70;;
28174;SDS011;59417;44.788;10.334;2023-04-25T17:28:23;2.45;;;1.33;;
28174;SDS011;59417;44.788;10.334;2023-04-25T17:32:06;4.05;;;1.60;;
28174;SDS011;59417;44.788;10.334;2023-04-25T17:35:12;3.17;;;1.30;;
28174;SDS011;59417;44.788;10.334;2023-04-25T17:37:39;2.90;;;1.48;;
28174;SDS011;59417;44.788;10.334;2023-04-25T17:42:36;1.58;;;1.10;;
28174;SDS011;59417;44.788;10.334;2023-04-25T17:45:05;2.83;;;1.10;;
28174;SDS011;59417;44.788;10.334;2023-04-25T17:47:35;2.78;;;1.23;;
28174;SDS011;59417;44.788;10.334;2023-04-25T17:59:58;1.77;;;1.13;;
28174;SDS011;59417;44.788;10.334;2023-04-25T18:02:27;3.78;;;1.00;;
28174;SDS011;59417;44.788;10.334;2023-04-25T18:04:53;4.80;;;1.08;;
28174;SDS011;59417;44.788;10.334;2023-04-25T18:07:19;2.10;;;1.00;;
28174;SDS011;59417;44.788;10.334;2023-04-25T18:13:49;2.67;;;1.23;;
28174;SDS011;59417;44.788;10.334;2023-04-25T18:16:15;1.60;;;1.10;;
28174;SDS011;59417;44.788;10.334;2023-04-25T18:18:41;4.82;;;1.02;;
28174;SDS011;59417;44.788;10.334;2023-04-25T18:21:08;2.75;;;1.13;;
28174;SDS011;59417;44.788;10.334;2023-04-25T18:23:34;4.45;;;1.48;;
28174;SDS011;59417;44.788;10.334;2023-04-25T18:26:01;3.38;;;1.35;;
28174;SDS011;59417;44.788;10.334;2023-04-25T18:28:28;2.90;;;1.67;;
28174;SDS011;59417;44.788;10.334;2023-04-25T18:30:54;3.90;;;1.50;;
28174;SDS011;59417;44.788;10.334;2023-04-25T18:33:20;4.53;;;1.80;;
28174;SDS011;59417;44.788;10.334;2023-04-25T18:35:48;4.32;;;1.63;;
28174;SDS011;59417;44.788;10.334;2023-04-25T18:38:22;3.97;;;1.63;;
28174;SDS011;59417;44.788;10.334;2023-04-25T18:40:54;4.47;;;1.70;;
28174;SDS011;59417;44.788;10.334;2023-04-25T18:43:26;3.15;;;1.80;;
28174;SDS011;59417;44.788;10.334;2023-04-25T18:45:53;6.93;;;2.38;;
28174;SDS011;59417;44.788;10.334;2023-04-25T18:48:21;5.10;;;2.10;;
28174;SDS011;59417;44.788;10.334;2023-04-25T18:50:48;4.65;;;2.20;;
28174;SDS011;59417;44.788;10.334;2023-04-25T18:53:17;3.33;;;1.65;;
28174;SDS011;59417;44.788;10.334;2023-04-25T18:55:43;4.40;;;2.17;;
28174;SDS011;59417;44.788;10.334;2023-04-25T18:58:09;2.95;;;2.03;;
28174;SDS011;59417;44.788;10.334;2023-04-25T19:00:36;3.33;;;1.85;;
28174;SDS011;59417;44.788;10.334;2023-04-25T19:03:02;3.83;;;2.00;;
28174;SDS011;59417;44.788;10.334;2023-04-25T19:05:29;3.00;;;2.40;;
28174;SDS011;59417;44.788;10.334;2023-04-25T19:07:56;3.55;;;2.17;;
28174;SDS011;59417;44.788;10.334;2023-04-25T19:10:23;5.50;;;2.08;;
28174;SDS011;59417;44.788;10.334;2023-04-25T19:12:49;4.70;;;2.40;;
28174;SDS011;59417;44.788;10.334;2023-04-25T19:15:18;5.88;;;2.28;;
28174;SDS011;59417;44.788;10.334;2023-04-25T19:17:44;5.15;;;2.60;;
28174;SDS011;59417;44.788;10.334;2023-04-25T19:20:12;3.40;;;2.63;;
28174;SDS011;59417;44.788;10.334;2023-04-25T19:22:51;3.50;;;2.60;;
28174;SDS011;59417;44.788;10.334;2023-04-25T19:28:17;3.22;;;2.10;;
28174;SDS011;59417;44.788;10.334;2023-04-25T19:30:43;4.80;;;2.35;;
28174;SDS011;59417;44.788;10.334;2023-04-25T19:33:10;3.90;;;2.22;;
28174;SDS011;59417;44.788;10.334;2023-04-25T19:35:36;6.15;;;2.17;;
28174;SDS011;59417;44.788;10.334;2023-04-25T19:38:02;3.00;;;2.40;;
28174;SDS011;59417;44.788;10.334;2023-04-25T19:40:28;4.32;;;2.30;;
28174;SDS011;59417;44.788;10.334;2023-04-25T19:49:10;2.75;;;1.58;;
28174;SDS011;59417;44.788;10.334;2023-04-25T19:51:36;2.03;;;1.83;;
28174;SDS011;59417;44.788;10.334;2023-04-25T19:54:03;2.03;;;1.60;;
28174;SDS011;59417;44.788;10.334;2023-04-25T19:56:35;4.38;;;2.08;;
28174;SDS011;59417;44.788;10.334;2023-04-25T19:59:01;2.58;;;1.55;;
28174;SDS011;59417;44.788;10.334;2023-04-25T20:01:27;3.13;;;1.90;;
28174;SDS011;59417;44.788;10.334;2023-04-25T20:03:53;2.03;;;1.55;;
28174;SDS011;59417;44.788;10.334;2023-04-25T20:06:20;1.88;;;1.73;;
28174;SDS011;59417;44.788;10.334;2023-04-25T20:08:46;2.63;;;1.80;;
28174;SDS011;59417;44.788;10.334;2023-04-25T20:11:12;2.10;;;1.75;;
28174;SDS011;59417;44.788;10.334;2023-04-25T20:13:39;3.72;;;1.88;;
28174;SDS011;59417;44.788;10.334;2023-04-25T20:16:05;5.13;;;2.53;;
28174;SDS011;59417;44.788;10.334;2023-04-25T20:18:31;3.10;;;2.22;;
28174;SDS011;59417;44.788;10.334;2023-04-25T20:20:57;2.50;;;2.00;;
28174;SDS011;59417;44.788;10.334;2023-04-25T20:23:23;3.53;;;2.00;;
28174;SDS011;59417;44.788;10.334;2023-04-25T20:25:50;4.65;;;2.13;;
28174;SDS011;59417;44.788;10.334;2023-04-25T20:28:16;3.53;;;2.10;;
28174;SDS011;59417;44.788;10.334;2023-04-25T20:30:47;2.30;;;2.00;;
28174;SDS011;59417;44.788;10.334;2023-04-25T20:33:13;2.10;;;1.88;;
28174;SDS011;59417;44.788;10.334;2023-04-25T20:35:39;2.17;;;1.70;;
28174;SDS011;59417;44.788;10.334;2023-04-25T20:38:06;3.80;;;2.00;;
28174;SDS011;59417;44.788;10.334;2023-04-25T20:40:32;2.22;;;2.00;;
28174;SDS011;59417;44.788;10.334;2023-04-25T20:42:58;2.80;;;1.90;;
28174;SDS011;59417;44.788;10.334;2023-04-25T20:45:25;2.40;;;2.10;;
28174;SDS011;59417;44.788;10.334;2023-04-25T20:47:56;2.20;;;1.88;;
28174;SDS011;59417;44.788;10.334;2023-04-25T20:50:22;2.53;;;2.13;;
28174;SDS011;59417;44.788;10.334;2023-04-25T20:52:48;3.00;;;1.83;;
28174;SDS011;59417;44.788;10.334;2023-04-25T20:55:14;2.30;;;1.80;;
28174;SDS011;59417;44.788;10.334;2023-04-25T20:57:43;2.55;;;1.85;;
28174;SDS011;59417;44.788;10.334;2023-04-25T21:00:09;2.00;;;1.60;;
28174;SDS011;59417;44.788;10.334;2023-04-25T21:02:51;2.63;;;1.63;;
28174;SDS011;59417;44.788;10.334;2023-04-25T21:05:17;3.65;;;2.00;;
28174;SDS011;59417;44.788;10.334;2023-04-25T21:07:49;2.63;;;2.38;;
28174;SDS011;59417;44.788;10.334;2023-04-25T21:10:18;2.65;;;1.73;;
28174;SDS011;59417;44.788;10.334;2023-04-25T21:12:44;6.43;;;1.95;;
28174;SDS011;59417;44.788;10.334;2023-04-25T21:15:23;2.27;;;2.07;;
28174;SDS011;59417;44.788;10.334;2023-04-25T21:17:56;4.78;;;2.22;;
28174;SDS011;59417;44.788;10.334;2023-04-25T21:20:26;5.97;;;1.98;;
28174;SDS011;59417;44.788;10.334;2023-04-25T21:22:59;2.80;;;2.30;;
28174;SDS011;59417;44.788;10.334;2023-04-25T21:25:25;2.65;;;2.25;;
28174;SDS011;59417;44.788;10.334;2023-04-25T21:27:56;3.58;;;1.92;;
28174;SDS011;59417;44.788;10.334;2023-04-25T21:30:26;3.30;;;2.15;;
28174;SDS011;59417;44.788;10.334;2023-04-25T21:32:53;3.58;;;2.30;;
28174;SDS011;59417;44.788;10.334;2023-04-25T21:35:22;2.90;;;1.80;;
28174;SDS011;59417;44.788;10.334;2023-04-25T21:37:49;1.75;;;1.65;;
28174;SDS011;59417;44.788;10.334;2023-04-25T21:40:15;1.88;;;1.77;;
28174;SDS011;59417;44.788;10.334;2023-04-25T21:42:42;2.30;;;1.77;;